This is the latest recevied weather packets stored in our database for station/object K8DJB-1. If no packets are shown the sender has not sent any weather packets the latest 1 day(s).
| Time | Temp. | Humidity | Pressure | Rain* | Wind** | Luminosity | Snow |
|---|---|---|---|---|---|---|---|
| 1778079637 | 10° C | 48% | 1012.8 hPa | 0 mm | - | - | - |
| 1778079037 | 10° C | 44% | 1012.6 hPa | 0 mm | - | - | - |
| 1778078737 | 10° C | 48% | 1012.5 hPa | 0 mm | - | - | - |
| 1778077537 | 9.44° C | 46% | 1012.2 hPa | 0 mm | - | - | - |
| 1778077237 | 10° C | 44% | 1012.2 hPa | 0 mm | - | - | - |
| 1778076637 | 9.44° C | 50% | 1012.1 hPa | 0 mm | - | - | - |
| 1778076337 | 9.44° C | 52% | 1012.2 hPa | 0 mm | - | - | - |
| 1778076037 | 8.89° C | 53% | 1012.1 hPa | 0 mm | - | - | - |
| 1778075737 | 8.89° C | 57% | 1012.2 hPa | 0 mm | - | - | - |
| 1778075437 | 8.33° C | 57% | 1012.1 hPa | 0 mm | - | - | - |
| 1778075137 | 8.33° C | 56% | 1012 hPa | 0 mm | - | - | - |
| 1778071325 | 6.67° C | 65% | 1011.7 hPa | 0 mm | - | - | - |
| 1778070423 | 5.56° C | 71% | 1011.5 hPa | 0 mm | - | - | - |
| 1778069825 | 5° C | 74% | 1011.5 hPa | 0 mm | - | - | - |
| 1778068962 | 3.33° C | 80% | 1011.3 hPa | 0 mm | - | - | - |
| 1778068923 | 3.33° C | 80% | 1011.3 hPa | 0 mm | - | - | - |
| 1778068623 | 2.78° C | 82% | 1011.2 hPa | 0 mm | - | - | - |
| 1778067423 | 2.22° C | 84% | 1010.7 hPa | 0 mm | - | - | - |
| 1778066062 | 2.22° C | 84% | 1010.1 hPa | 0 mm | - | - | - |
| 1778065884 | 2.22° C | 84% | 1010 hPa | 0 mm | - | - | - |
| 1778065462 | 2.22° C | 84% | 1010.1 hPa | 0 mm | - | - | - |
| 1778065262 | 2.22° C | 84% | 1009.9 hPa | 0 mm | - | - | - |
| 1778065162 | 2.22° C | 84% | 1009.9 hPa | 0 mm | - | - | - |
| 1778064418 | 2.22° C | 83% | 1010 hPa | 0 mm | - | - | - |
| 1778063962 | 2.22° C | 84% | 1009.9 hPa | 0 mm | - | - | - |
* Rain latest hour (hover to see other rain measurements)
** Current wind speed in m/s (hover to see current wind gust speed)